NWS Home NWS Lubbock West Texas Mesonet Three hour changes as of 1106 AM, Sat Oct 20, 2018

Latest   N   C   S   Daily Sum   3hrΔ   24hrΔ   Soil Data 
Site Map   24hr Precip   72hr Precip   Google Plot


Station Time of Last Temp Now Temp 3h ago Delta-T Dewpoint Now Dewpoint 3hr ago Delta-Td 3hr Press Change (mB)
Reese Center  11:00 AM 55.5 46.2 9.3 44.7 42.5 2.2 2.5
Abernathy  11:00 AM 56.8 45.3 11.4 44.7 42.4 2.3 2.4
Plainview  11:00 AM 55.6 47.7 7.8 42.3 42 0.4 2.1
Tahoka  11:00 AM 60.9 50.4 10.4 47.6 44.7 3 2.4
Slaton  11:00 AM 61 51.2 9.9 47 43.8 3.2 2.7
Levelland  11:00 AM 58.5 48.6 9.9 44.5 41.8 2.7 2.4
Roaring Springs  11:00 AM 58.2 52.9 5.4 45.2 46 -0.8 2.6
Floydada  11:00 AM 59.3 47.1 12.2 39 42.6 -3.6 2.4
Ralls  11:00 AM 57.9 49.2 8.6 43.6 43 0.6 2.7
Brownfield  11:00 AM 60.2 52.9 7.3 47.9 44.2 3.6 2.4
Muleshoe  11:00 AM 56.6 44.9 11.7 43.3 39 4.4 2
Morton  11:00 AM 59.2 48.7 10.5 42.2 41.2 1 2.3
O'Donnell  11:00 AM 61.1 51.8 9.3 50.4 45.1 5.3 2.5
Seagraves  11:00 AM 60.9 52.4 8.5 47.5 44.7 2.8 2.3
Amherst  11:00 AM 57 45.2 11.8 42.5 40.1 2.5 2.3
Plains  11:00 AM 61.3 51.8 9.5 46.8 44.1 2.7 2.5
Lamesa  11:00 AM 63.2 54.1 9.1 50 47.6 2.5 2
Hart  11:00 AM 56 42.3 13.7 39.2 39 0.1 2.1
Friona  11:00 AM 55.7 37.6 18.2 41.1 35.6 5.5 1.9
Dimmitt  11:00 AM 55 40 15 41.9 37.6 4.3 2
Tulia  10:30 AM 54 42.6 11.4 39.8 38.9 1 2.2
Silverton  11:00 AM 56.9 49.8 7.1 38.5 41 -2.5 2
Post  11:00 AM 65.2 55.6 9.6 47.6 45.1 2.6 2.5
Seminole  11:00 AM 60 52.5 7.6 46.2 44.5 1.7 2.4
Gail  11:00 AM 64.1 54.9 9.2 49.4 48 1.4 2.3
White River Lake  11:00 AM 60.3 54.5 5.8 44.2 44.8 -0.6 2.5
Graham  11:00 AM 62.1 54.4 7.7 49.2 45.4 3.7 2.5
Sundown  11:00 AM 60.9 50.8 10.1 44.1 42.5 1.6 2.6
Anton  11:00 AM 57.3 47.5 9.8 47.3 43.2 4.1 2.5
Fluvanna  11:00 AM 60.8 55.1 5.7 49.6 46.7 2.9 2.3
Spur  11:00 AM 62.1 55.7 6.4 46.3 45.7 0.6 2.6
Northwest Lubbock  11:00 AM 58.2 49.1 9.1 45.4 44 1.4 2.6
Guthrie  11:00 AM 63.1 54 9.1 46.7 46.1 0.6 2.4
Clarendon  11:00 AM 60.6 47.7 12.9 35.6 38.6 -2.9 2.2
Paducah  11:00 AM 62 51.1 10.9 45.8 46.4 -0.6 2.5
Snyder  11:00 AM 58.9 55.7 3.3 51.4 50.3 1.1 2.5
Memphis  11:00 AM 61.3 50.9 10.4 40.2 42.1 -1.8 2.4
Jayton  11:00 AM 63.3 53.8 9.5 49.5 47.5 2 2.6
Pampa  11:00 AM 59.2 40.8 18.4 38.2 37 1.3 2
Aspermont  11:00 AM 62.2 51.7 10.5 53.4 50.3 3.2 2.3
Hereford  11:00 AM 56.7 40.8 15.9 37.5 34.9 2.6 2
Goodlett  11:00 AM 60.5 52 8.6 44.6 45.9 -1.3 2.5
McLean  11:00 AM 59.5 44.5 15 36.7 38.1 -1.4 2.2
Denver City  11:00 AM 61.7 51.3 10.5 44.9 42 2.9 2.4
Lake Alan Henry  11:00 AM 63.5 55.1 8.3 51.4 47.7 3.7 2.6
Wolfforth  11:00 AM 59.8 50.1 9.8 47.3 44.4 2.8 2.5
Andrews  11:00 AM 64.4 55.1 9.3 47.1 47.5 -0.4 2
Turkey  11:00 AM 60.5 51.1 9.5 41.3 43.3 -2 2.3
Childress  11:00 AM 60.4 49.9 10.6 43.8 44.6 -0.8 2.5
Tatum  11:00 AM 59.7 49.3 10.4 43.4 41.4 1.9 2.2
Northfield  11:00 AM 61.6 50.9 10.7 40.8 44.3 -3.5 2.4
Dora  11:00 AM 58.3 46.9 11.4 40.6 39.7 0.9 2
Northwest San Angelo  11:00 AM 64.2 58 6.1 55.5 56.1 -0.6 1.9
Saint Lawrence  11:00 AM 62.3 58 4.2 53.2 54.8 -1.7 2.2
Haskell  11:00 AM 58.4 53.7 4.7 52.9 51.7 1.2 2.3
Wall  11:00 AM 63.8 56.7 7.1 59.2 56.3 2.9 1.8
Knox City  11:00 AM 62 51.6 10.4 54.1 50.7 3.4 2.6
Guadalupe Mtns Park  11:00 AM 55.7 55.9 -0.1 40.1 38.1 2 1.7
Caprock Canyons   11:00 AM 59.1 53.5 5.6 38.8 42.8 -4 2.3
Odell  11:00 AM 62.9 47.8 15.1 47.9 47.8 0.1 2.6
Coyanosa  11:00 AM 62.9 58.7 4.2 56.3 56.4 -0.1 2.3
Big Lake  11:00 AM 61.7 56.9 4.8 56 55.8 0.2 1.7
Junction  11:00 AM 62.5 58.8 3.7 60.7 58.8 1.9 1.2
Hobbs  11:00 AM 59.5 52.4 7.1 44.6 43.8 0.8 2.5
Canadian  11:00 AM 62.4 40.5 21.9 36.9 37.7 -0.8 1.9
Palo Duro Canyon State Park Rim  11:00 AM 59.7 48.1 11.7 38.8 37 1.8 2.1
Bootleg  11:00 AM 54.7 37.5 17.2 38.7 33.7 4.9 2
Sterling City  11:00 AM 64.4 57.1 7.3 54.8 56.4 -1.6 1.9
Mertzon  11:00 AM 63.3 58.2 5.1 57.6 57.1 0.5 2
Persimmon Gap  11:00 AM 58.2 57.1 1.1 57.6 56.6 1 2.1
Weinert  11:00 AM 59.6 53 6.6 53.7 52 1.8 2.4
Claude 12 Southwest  11:00 AM 58 43 15.1 36.7 38.3 -1.6 2.1
Amarillo 7 South Southeast  11:00 AM 58.1 40.9 17.3 35.8 36.7 -0.8 2
Umbarger  11:00 AM 57.9 42.3 15.6 37.3 38.1 -0.9 2
Lomax  11:00 AM 61.5 55.6 5.9 52.4 54.5 -2.1 2.3
Amarillo 9 North Northeast  11:00 AM 55.7 35.8 19.9 38.8 35.1 3.8 1.7
Aiken 3 West Southwest  11:00 AM 57.5 44.4 13.1 39.1 41.4 -2.2 2.4
Sweetwater  11:00 AM 59.7 54.1 5.7 56.2 54.1 2.2 2.2
Dozier  11:00 AM 62.1 49.2 12.9 40.8 41.7 -0.9 2.4
Amarillo 15 North Northwest  11:00 AM 57.9 41.3 16.6 37.5 37.9 -0.5 1.8
Menard  11:00 AM 63.7 59 4.7 58.9 58.3 0.6 1.6
Tarzan  11:00 AM 61.3 55 6.3 50.9 51.4 -0.6 2.4
Goodnight  11:00 AM 61.7 44.8 16.8 37.6 38.1 -0.5 2.3
Boys Ranch   11:00 AM 56.8 40.4 16.4 37.5 36.9 0.5 1.6
Fort McKavett  11:00 AM 63.6 58.8 4.8 58.6 58.8 -0.2 1.3
Fort Chadbourne  11:00 AM 65 58 7 58 55.9 2.1 1.8
Palo Duro Canyon State Park Floor  11:00 AM 62.8 44.6 18.2 39.6 40.1 -0.5 1.8
Fort Lancaster  11:00 AM 61.8 59.8 2 59.5 56.7 2.8 1.7
Dell City 1N  11:00 AM 64 58.7 5.3 45.9 52 -6.1 1.4
Clyde  11:00 AM 63.5 51.4 12.1 56.6 51.4 5.1 1.8
Snyder SSW  11:00 AM 60.4 56.6 3.8 51.1 50.2 0.9 2.6
Panhandle  11:00 AM 56.9 43.5 13.4 36.8 37.4 -0.6 2.2
Vigo Park  11:00 AM 58.4 42.7 15.7 35.4 39.7 -4.3 2.3
Welch  11:00 AM 60.8 52.3 8.5 49.8 46.5 3.3 2.4
Throckmorton  11:00 AM 62.1 55.1 7 57.1 55.1 2 2
Sierra Blanca  11:00 AM 56.3 55.6 0.7 51.9 52.8 -1 1.8
Fort Lewis CO  11:00 AM 54.1 39.1 15 29.4 27.7 1.7 0.9
New Home  11:00 AM 58.9 52.1 6.8 48.1 44.5 3.6 2.5
McCamey  11:00 AM 59.6 57.6 2 56.4 55.2 1.2 2.1
Stamford  11:00 AM 61.1 55.2 5.9 56.9 55 1.9 2.6
Crowell  11:00 AM 62.8 51.9 10.8 49.5 49.6 -0.1 2.7
Stinnett  11:00 AM 59 42.3 16.7 35 34.9 0.1 2
Colorado City  11:00 AM 62.5 56 6.5 53.3 52.9 0.4 2.3
Happy  11:00 AM 56.7 42.1 14.6 38.4 38.6 -0.1 2.2
Endee  11:00 AM 52.9 35.7 17.2 38 34.3 3.7 1.7
JA Ranch  11:00 AM 62.2 46.4 15.8 36.8 39.8 -3.1 2.1
Adrian  11:00 AM 55.8 40.3 15.5 36.2 35.2 1 2
Lesley  11:00 AM 62.2 52.4 9.8 38.9 41.7 -2.8 2.7
Earth  11:00 AM 57.3 42.3 15 42.7 38.7 4 2
Van Horn  11:00 AM 58.2 56.1 2.1 49.6 49.6 0 2.1
Rotan  11:00 AM 59.7 55.9 3.9 52.3 50.9 1.3 2.5
Fritch  11:00 AM 56.1 45.7 10.4 37.8 38 -0.2 1.8
Estelline  11:00 AM 61.5 51.6 9.9 43.1 44.5 -1.4 2.2
Crane  11:00 AM 62.6 56.5 6.1 54.9 55.2 -0.3 2.2
Hackberry  11:00 AM 62.6 51.1 11.5 46.4 47.9 -1.5 2.4
Olton  11:00 AM 55.6 45.3 10.3 41.3 40.1 1.1 2.1

West Texas Mesonet Home   Site Map/Menu  NWS Lubbock Soil Data  Daily Summary Page  24hr Precip  72hr Precip  Google Plot